createdAt,value
2023-05-05T00:11:57.355Z,4.65
2023-05-05T00:14:24.277Z,4.53
2023-05-05T00:16:51.374Z,5.57
2023-05-05T00:19:18.423Z,4.55
2023-05-05T00:21:48.722Z,5.80
2023-05-05T00:24:15.758Z,5.32
2023-05-05T00:26:42.530Z,4.70
2023-05-05T00:29:09.443Z,6.82
2023-05-05T00:31:38.068Z,6.17
2023-05-05T00:34:04.961Z,7.47
2023-05-05T00:36:32.174Z,3.97
2023-05-05T00:38:59.100Z,4.78
2023-05-05T00:41:26.255Z,5.00
2023-05-05T00:43:53.259Z,4.80
2023-05-05T00:46:31.784Z,6.60
2023-05-05T00:48:59.930Z,4.82
2023-05-05T00:51:28.484Z,4.88
2023-05-05T00:53:56.058Z,4.57
2023-05-05T00:56:23.533Z,5.10
2023-05-05T00:58:50.699Z,5.75
2023-05-05T01:01:18.016Z,5.40
2023-05-05T01:03:45.101Z,7.32
2023-05-05T01:06:35.188Z,4.50
2023-05-05T01:09:11.757Z,6.35
2023-05-05T01:12:01.275Z,4.93
2023-05-05T01:15:00.074Z,5.68
2023-05-05T01:17:36.482Z,4.80
2023-05-05T01:20:32.257Z,6.18
2023-05-05T01:23:04.526Z,5.65
2023-05-05T01:25:43.357Z,5.35
2023-05-05T01:28:19.124Z,8.48
2023-05-05T01:31:10.940Z,8.18
2023-05-05T01:33:48.143Z,9.00
2023-05-05T01:36:23.151Z,5.72
2023-05-05T01:38:58.201Z,6.80
2023-05-05T01:41:30.367Z,6.70
2023-05-05T01:44:01.885Z,8.73
2023-05-05T01:46:30.634Z,5.53
2023-05-05T01:48:59.178Z,7.32
2023-05-05T01:51:28.273Z,6.15
2023-05-05T01:54:02.280Z,5.95
2023-05-05T01:56:31.600Z,8.63
2023-05-05T01:59:00.781Z,8.73
2023-05-05T02:01:29.130Z,6.45
2023-05-05T02:03:57.540Z,7.15
2023-05-05T02:06:27.143Z,6.35
2023-05-05T02:08:54.872Z,5.93
2023-05-05T02:11:22.119Z,5.97
2023-05-05T02:13:51.416Z,7.20
2023-05-05T02:16:21.070Z,6.00
2023-05-05T02:18:49.501Z,6.68
2023-05-05T02:21:23.225Z,7.13
2023-05-05T02:23:52.213Z,5.30
2023-05-05T02:26:22.016Z,6.75
2023-05-05T02:29:20.311Z,7.47
2023-05-05T02:31:51.013Z,6.75
2023-05-05T02:34:25.599Z,8.25
2023-05-05T02:36:55.939Z,7.00
2023-05-05T02:39:32.037Z,6.68
2023-05-05T02:42:04.943Z,6.30
2023-05-05T02:44:33.412Z,7.70
2023-05-05T02:47:05.186Z,9.18
2023-05-05T02:49:34.841Z,6.63
2023-05-05T02:52:02.064Z,8.43
2023-05-05T02:54:29.332Z,7.10
2023-05-05T02:56:58.257Z,6.47
2023-05-05T02:59:40.913Z,7.05
2023-05-05T03:02:19.008Z,9.13
2023-05-05T03:04:52.998Z,9.90
2023-05-05T03:07:26.993Z,7.43
2023-05-05T03:10:27.916Z,8.98
2023-05-05T03:12:59.590Z,6.97
2023-05-05T03:15:31.035Z,8.60
2023-05-05T03:18:07.034Z,10.27
2023-05-05T03:20:34.434Z,7.53
2023-05-05T03:25:50.331Z,7.97
2023-05-05T03:28:18.333Z,7.88
2023-05-05T03:30:45.376Z,7.70
2023-05-05T03:33:12.491Z,7.97
2023-05-05T03:35:44.088Z,8.05
2023-05-05T03:41:07.317Z,8.23
2023-05-05T03:43:37.589Z,7.87
2023-05-05T03:46:04.762Z,7.45
2023-05-05T03:48:34.596Z,8.32
2023-05-05T03:51:02.109Z,11.20
2023-05-05T03:53:38.190Z,8.43
2023-05-05T03:56:05.718Z,8.55
2023-05-05T03:58:32.821Z,10.65
2023-05-05T04:01:00.140Z,10.43
2023-05-05T04:03:28.661Z,8.27
2023-05-05T04:05:56.252Z,9.48
2023-05-05T04:08:23.206Z,9.25
2023-05-05T04:10:50.668Z,12.30
2023-05-05T04:13:17.705Z,8.43
2023-05-05T04:15:48.256Z,8.87
2023-05-05T04:18:15.328Z,8.48
2023-05-05T04:20:42.730Z,8.00
2023-05-05T04:23:17.631Z,8.85
2023-05-05T04:25:50.139Z,8.85
2023-05-05T04:28:21.768Z,10.27
2023-05-05T04:30:49.044Z,8.77
2023-05-05T04:33:16.157Z,11.25
2023-05-05T04:35:43.206Z,10.73
2023-05-05T04:38:10.156Z,9.73
2023-05-05T04:40:41.580Z,12.17
2023-05-05T04:43:08.871Z,12.27
2023-05-05T04:45:35.817Z,9.30
2023-05-05T04:48:02.709Z,9.00
2023-05-05T04:50:32.405Z,11.53
2023-05-05T04:53:03.156Z,12.65
2023-05-05T04:55:29.898Z,14.95
2023-05-05T04:57:56.798Z,12.55
2023-05-05T05:00:26.642Z,10.65
2023-05-05T05:02:55.496Z,9.82
2023-05-05T05:05:23.096Z,11.77
2023-05-05T05:07:59.465Z,15.63
2023-05-05T05:10:26.608Z,14.98
2023-05-05T05:12:53.868Z,9.18
2023-05-05T05:15:21.148Z,10.98
2023-05-05T05:17:48.240Z,12.18
2023-05-05T05:20:15.153Z,12.77
2023-05-05T05:22:42.602Z,11.93
2023-05-05T05:25:09.807Z,8.52
2023-05-05T05:27:37.106Z,9.05
2023-05-05T05:30:04.369Z,10.80
2023-05-05T05:32:32.350Z,10.35
2023-05-05T05:35:02.752Z,11.80
2023-05-05T05:37:33.137Z,12.40
2023-05-05T05:40:00.247Z,9.80
2023-05-05T05:45:26.614Z,11.30
2023-05-05T05:47:53.801Z,10.57
2023-05-05T05:50:21.320Z,10.30
2023-05-05T05:52:48.288Z,12.18
2023-05-05T05:55:15.495Z,11.07
2023-05-05T05:57:42.595Z,10.07
2023-05-05T06:00:10.137Z,10.00
2023-05-05T06:05:11.262Z,12.13
2023-05-05T06:07:38.583Z,13.27
2023-05-05T06:10:22.928Z,11.57
2023-05-05T06:12:53.655Z,14.57
2023-05-05T06:15:20.843Z,11.48
2023-05-05T06:17:48.229Z,14.63
2023-05-05T06:20:15.458Z,13.73
2023-05-05T06:22:42.529Z,12.93
2023-05-05T06:25:09.656Z,15.13
2023-05-05T06:55:15.104Z,14.80
2023-05-05T17:58:40.315Z,8.60
2023-05-05T18:01:07.136Z,7.60
2023-05-05T18:03:34.145Z,8.80
2023-05-05T18:06:02.723Z,10.60
2023-05-05T18:08:29.407Z,10.75
2023-05-05T18:10:56.276Z,12.77
2023-05-05T18:13:23.074Z,16.83
2023-05-05T18:15:49.813Z,14.82
2023-05-05T18:18:16.701Z,15.93
2023-05-05T18:20:44.188Z,15.53
2023-05-05T18:23:11.366Z,18.50
2023-05-05T18:25:38.190Z,21.20
2023-05-05T18:28:05.667Z,18.35
2023-05-05T18:30:33.183Z,20.10
2023-05-05T18:33:00.320Z,23.42
2023-05-05T18:35:27.238Z,24.27
2023-05-05T18:37:55.191Z,24.00
2023-05-05T18:40:22.815Z,29.55
2023-05-05T18:42:50.004Z,24.92
2023-05-05T18:45:16.960Z,22.23
2023-05-05T18:47:44.396Z,21.50
2023-05-05T18:50:11.651Z,25.05
2023-05-05T18:52:38.495Z,26.52
2023-05-05T18:55:06.017Z,25.45
2023-05-05T18:57:32.951Z,26.65
2023-05-05T19:00:00.716Z,24.70
2023-05-05T19:02:27.508Z,23.30
2023-05-05T19:04:54.296Z,26.37
2023-05-05T19:07:33.817Z,23.83
2023-05-05T19:10:02.453Z,34.53
2023-05-05T19:12:29.152Z,23.02
2023-05-05T19:14:55.987Z,20.23
2023-05-05T19:17:22.810Z,22.48
2023-05-05T19:19:50.004Z,23.30
2023-05-05T19:22:17.753Z,23.08
2023-05-05T19:27:16.386Z,20.65
2023-05-05T19:29:43.811Z,23.55
2023-05-05T19:32:11.071Z,23.63
2023-05-05T19:34:37.874Z,27.70
2023-05-05T19:37:04.695Z,29.08
2023-05-05T19:39:31.490Z,23.05
2023-05-05T19:41:58.320Z,23.83
2023-05-05T19:44:25.026Z,23.63
2023-05-05T19:46:53.062Z,20.23
2023-05-05T19:49:19.860Z,21.33
2023-05-05T19:51:49.880Z,21.58
2023-05-05T19:54:17.049Z,22.92
2023-05-05T19:56:43.940Z,23.92
2023-05-05T19:59:11.057Z,27.77
2023-05-05T20:01:38.072Z,24.40
2023-05-05T20:04:05.133Z,24.87
2023-05-05T20:06:32.840Z,26.98
2023-05-05T20:09:00.645Z,33.10
2023-05-05T20:13:54.133Z,29.58
2023-05-05T20:16:22.141Z,30.37
2023-05-05T20:18:49.217Z,28.73
2023-05-05T20:21:17.448Z,32.53
2023-05-05T20:23:45.699Z,31.25
2023-05-05T20:26:12.853Z,34.58
2023-05-05T20:28:40.963Z,32.38
2023-05-05T20:31:10.500Z,36.85
2023-05-05T20:36:04.464Z,28.97
2023-05-05T20:38:31.355Z,31.07
2023-05-05T20:40:58.315Z,31.33
2023-05-05T20:43:25.631Z,34.90
2023-05-05T20:45:52.685Z,35.58
2023-05-05T20:48:19.531Z,31.40
2023-05-05T20:50:46.508Z,40.20
2023-05-05T20:53:16.341Z,41.23
2023-05-05T20:55:43.346Z,41.42
2023-05-05T20:58:10.100Z,42.17
2023-05-05T21:00:36.983Z,38.50
2023-05-05T21:03:04.551Z,39.60
2023-05-05T21:05:31.846Z,38.78
2023-05-05T21:08:00.803Z,36.28
2023-05-05T21:10:29.151Z,36.63
2023-05-05T21:15:23.180Z,33.67
2023-05-05T21:17:50.029Z,35.00
2023-05-05T21:20:18.843Z,30.97
2023-05-05T21:22:45.926Z,30.80
2023-05-05T21:25:17.644Z,30.40
2023-05-05T21:27:45.068Z,37.80
2023-05-05T21:30:12.425Z,41.75
2023-05-05T21:32:40.761Z,37.30
2023-05-05T21:35:08.883Z,37.60
2023-05-05T21:37:38.083Z,38.88
2023-05-05T21:40:14.138Z,38.88
2023-05-05T21:42:41.708Z,38.28
2023-05-05T21:45:09.337Z,37.03
2023-05-05T21:47:36.161Z,38.53
2023-05-05T21:50:03.125Z,37.57
2023-05-05T21:52:29.810Z,35.73
2023-05-05T21:54:56.676Z,37.38
2023-05-05T21:57:23.518Z,37.42
2023-05-05T21:59:50.277Z,33.88
2023-05-05T22:02:16.977Z,30.05
2023-05-05T22:04:46.319Z,31.45
2023-05-05T22:07:13.007Z,34.60
2023-05-05T22:09:39.694Z,31.38
2023-05-05T22:12:06.544Z,31.48
2023-05-05T22:14:33.234Z,35.25
2023-05-05T22:16:59.932Z,34.95
2023-05-05T22:19:26.734Z,37.35
2023-05-05T22:21:53.706Z,32.22
2023-05-05T22:24:20.615Z,32.70
2023-05-05T22:26:48.133Z,40.97
2023-05-05T22:29:14.808Z,38.53
2023-05-05T22:31:41.804Z,45.42
2023-05-05T22:34:08.592Z,42.93
2023-05-05T22:36:35.541Z,47.83
2023-05-05T22:39:02.230Z,37.83
2023-05-05T22:41:28.973Z,38.63
2023-05-05T22:43:58.235Z,41.08
2023-05-05T22:46:25.052Z,36.92
2023-05-05T22:48:53.323Z,37.33
2023-05-05T22:51:20.059Z,44.53
2023-05-05T22:53:46.742Z,42.30
2023-05-05T22:56:13.690Z,41.28
2023-05-05T22:58:40.615Z,41.57
2023-05-05T23:01:07.531Z,40.90
2023-05-05T23:03:34.313Z,42.17
2023-05-05T23:06:01.425Z,37.47
2023-05-05T23:08:28.206Z,40.30
2023-05-05T23:10:54.989Z,42.20
2023-05-05T23:13:21.749Z,39.72
2023-05-05T23:15:48.474Z,38.63
2023-05-05T23:18:15.190Z,37.78
2023-05-05T23:20:42.069Z,34.13
2023-05-05T23:23:08.773Z,30.15
2023-05-05T23:25:35.960Z,31.00
2023-05-05T23:28:02.958Z,29.20
2023-05-05T23:30:29.814Z,27.63
2023-05-05T23:32:58.260Z,34.33
2023-05-05T23:35:25.131Z,31.75
2023-05-05T23:37:51.918Z,36.95
2023-05-05T23:40:19.658Z,41.42
2023-05-05T23:42:46.431Z,39.72
2023-05-05T23:45:13.370Z,55.50
2023-05-05T23:47:40.169Z,50.33
2023-05-05T23:50:07.581Z,52.53
2023-05-05T23:52:34.269Z,49.63
2023-05-05T23:55:01.099Z,49.17
